Time;durP1;ratioP1;P1;durP2;ratioP2;P2;SDS_P1;SDS_P2;PMS_P1;PMS_P2;Temp;Humidity;BMP_temperature;BMP_pressure;BME280_temperature;BME280_humidity;BME280_pressure;Samples;Min_cycle;Max_cycle;Signal;HPM_P1;HPM_P2
2022/11/14 00:00:05;;;;;;;;;;;;;;;16.65;66.20;101314.94;1265190;23;573;-71
2022/11/14 00:00:55;;;;;;;;;;;;;;;16.64;65.74;101315.94;1265377;23;666;-71
2022/11/14 00:01:46;;;;;;;;;;;;;;;16.64;65.84;101322.16;1266812;23;1293;-72
2022/11/14 00:02:36;;;;;;;;;;;;;;;16.63;65.66;101319.59;1265444;23;541;-71
2022/11/14 00:03:26;;;;;;;;;;;;;;;16.63;65.94;101327.69;1265498;23;674;-71
2022/11/14 00:04:17;;;;;;;;;;;;;;;16.62;66.10;101323.25;1265333;23;609;-71
2022/11/14 00:05:07;;;;;;;;;;;;;;;16.63;65.96;101325.00;1265952;23;649;-71
2022/11/14 00:05:58;;;;;;;;;;;;;;;16.64;66.29;101322.16;1267537;23;599;-70
2022/11/14 00:06:48;;;;;;;;;;;;;;;16.62;65.67;101313.34;1265696;23;638;-71
2022/11/14 00:07:38;;;;;;;;;;;;;;;16.62;66.28;101318.72;1261070;23;657;-71
2022/11/14 00:08:29;;;;;;;;;;;;;;;16.62;66.13;101309.78;1261917;23;653;-70
2022/11/14 00:09:19;;;;;;;;;;;;;;;16.60;66.16;101309.06;1267422;23;661;-71
2022/11/14 00:10:10;;;;;;;;;;;;;;;16.58;65.80;101319.09;1260991;23;657;-72
2022/11/14 00:11:00;;;;;;;;;;;;;;;16.59;65.49;101318.97;1260203;23;661;-71
2022/11/14 00:11:51;;;;;;;;;;;;;;;16.59;66.04;101318.09;1267452;23;622;-71
2022/11/14 00:12:41;;;;;;;;;;;;;;;16.58;65.78;101316.41;1267402;23;662;-71
2022/11/14 00:13:31;;;;;;;;;;;;;;;16.58;66.20;101316.41;1266067;23;673;-71
2022/11/14 00:14:22;;;;;;;;;;;;;;;16.58;65.73;101321.78;1265691;23;647;-71
2022/11/14 00:15:12;;;;;;;;;;;;;;;16.58;65.93;101317.25;1265885;23;645;-71
2022/11/14 00:16:03;;;;;;;;;;;;;;;16.57;65.43;101315.53;1265495;23;638;-71
2022/11/14 00:16:53;;;;;;;;;;;;;;;16.57;66.09;101317.38;1265773;23;649;-72
2022/11/14 00:17:44;;;;;;;;;;;;;;;16.57;65.66;101314.69;1267398;23;673;-73
2022/11/14 00:18:34;;;;;;;;;;;;;;;16.57;65.75;101318.22;1265631;23;639;-71
2022/11/14 00:19:24;;;;;;;;;;;;;;;16.56;65.43;101316.53;1265977;23;653;-71
2022/11/14 00:20:15;;;;;;;;;;;;;;;16.56;65.64;101313.81;1265569;23;673;-71
2022/11/14 00:21:05;;;;;;;;;;;;;;;16.54;65.83;101314.94;1265258;23;642;-71
2022/11/14 00:21:56;;;;;;;;;;;;;;;16.53;65.52;101314.06;1265454;23;642;-71
2022/11/14 00:22:46;;;;;;;;;;;;;;;16.55;65.89;101324.72;1265723;23;662;-69
2022/11/14 00:23:36;;;;;;;;;;;;;;;16.54;65.82;101317.63;1267534;23;516;-71
2022/11/14 00:24:27;;;;;;;;;;;;;;;16.54;65.90;101317.63;1265772;23;638;-69
2022/11/14 00:25:17;;;;;;;;;;;;;;;16.53;65.68;101318.59;1261102;23;678;-70
2022/11/14 00:26:08;;;;;;;;;;;;;;;16.54;66.12;101323.00;1261870;23;614;-69
2022/11/14 00:26:58;;;;;;;;;;;;;;;16.54;65.67;101320.31;1267415;23;557;-71
2022/11/14 00:27:49;;;;;;;;;;;;;;;16.54;65.39;101314.94;1265427;23;641;-71
2022/11/14 00:28:39;;;;;;;;;;;;;;;16.53;65.69;101318.59;1265665;23;618;-71
2022/11/14 00:29:29;;;;;;;;;;;;;;;16.53;65.88;101314.06;1265876;23;677;-71
2022/11/14 00:30:20;;;;;;;;;;;;;;;16.53;66.12;101307.84;1267392;23;613;-71
2022/11/14 00:31:10;;;;;;;;;;;;;;;16.53;65.69;101313.22;1265826;23;605;-71
2022/11/14 00:32:01;;;;;;;;;;;;;;;16.53;66.01;101315.91;1265501;23;655;-71
2022/11/14 00:32:51;;;;;;;;;;;;;;;16.53;65.25;101307.84;1265666;23;650;-71
2022/11/14 00:33:42;;;;;;;;;;;;;;;16.52;65.96;101306.13;1267402;23;641;-71
2022/11/14 00:34:32;;;;;;;;;;;;;;;16.52;65.93;101300.75;1265701;23;807;-71
2022/11/14 00:35:22;;;;;;;;;;;;;;;16.51;65.93;101315.19;1265398;23;717;-71
2022/11/14 00:36:13;;;;;;;;;;;;;;;16.51;65.61;101309.81;1265760;23;1068;-71
2022/11/14 00:37:03;;;;;;;;;;;;;;;16.50;65.70;101308.09;1266583;23;613;-71
2022/11/14 00:37:54;;;;;;;;;;;;;;;16.51;65.41;101309.81;1265627;23;623;-71
2022/11/14 00:38:44;;;;;;;;;;;;;;;16.50;65.71;101300.00;1260901;23;656;-71
2022/11/14 00:39:35;;;;;;;;;;;;;;;16.51;65.40;101304.41;1261972;23;669;-71
2022/11/14 00:40:25;;;;;;;;;;;;;;;16.49;65.65;101301.00;1268347;23;652;-71
2022/11/14 00:41:15;;;;;;;;;;;;;;;16.48;65.72;101294.75;1265913;23;637;-71
2022/11/14 00:42:06;;;;;;;;;;;;;;;16.48;65.38;101294.75;1265647;23;630;-71
2022/11/14 00:42:56;;;;;;;;;;;;;;;16.47;65.68;101290.38;1267475;23;633;-71
2022/11/14 00:43:47;;;;;;;;;;;;;;;16.46;65.53;101290.50;1267450;23;607;-71
2022/11/14 00:44:37;;;;;;;;;;;;;;;16.44;66.32;101293.31;1267402;23;705;-71
2022/11/14 00:45:28;;;;;;;;;;;;;;;16.45;66.25;101296.88;1267344;23;605;-70
2022/11/14 00:46:18;;;;;;;;;;;;;;;16.46;65.43;101291.38;1267462;23;638;-70
2022/11/14 00:47:08;;;;;;;;;;;;;;;16.45;65.35;101291.50;1265801;23;634;-71
2022/11/14 00:47:59;;;;;;;;;;;;;;;16.44;65.71;101292.47;1265569;23;577;-71
2022/11/14 00:48:49;;;;;;;;;;;;;;;16.43;65.65;101293.44;1265717;23;646;-71
2022/11/14 00:49:40;;;;;;;;;;;;;;;16.43;66.01;101290.75;1267345;23;727;-70
2022/11/14 00:50:30;;;;;;;;;;;;;;;16.45;65.56;101291.50;1267193;23;588;-71
2022/11/14 00:51:20;;;;;;;;;;;;;;;16.44;65.49;101293.31;1265907;23;614;-71
2022/11/14 00:52:11;;;;;;;;;;;;;;;16.45;65.51;101288.81;1267341;23;641;-71
2022/11/14 00:53:01;;;;;;;;;;;;;;;16.45;65.63;101291.50;1265749;23;626;-71
2022/11/14 00:53:52;;;;;;;;;;;;;;;16.43;65.39;101285.38;1265490;23;673;-70
2022/11/14 00:54:42;;;;;;;;;;;;;;;16.41;65.94;101285.50;1267342;23;644;-71
2022/11/14 00:55:32;;;;;;;;;;;;;;;16.42;65.59;101289.06;1265887;23;638;-71
2022/11/14 00:56:23;;;;;;;;;;;;;;;16.41;65.39;101290.03;1265675;23;646;-69
2022/11/14 00:57:13;;;;;;;;;;;;;;;16.40;65.79;101285.63;1265916;23;673;-69
2022/11/14 00:58:04;;;;;;;;;;;;;;;16.41;65.80;101281.97;1267181;23;630;-70
2022/11/14 00:58:54;;;;;;;;;;;;;;;16.43;65.41;101280.00;1265796;23;661;-70
2022/11/14 00:59:45;;;;;;;;;;;;;;;16.42;65.11;101283.66;1267259;23;621;-70
2022/11/14 01:00:35;;;;;;;;;;;;;;;16.41;65.89;101281.97;1265609;23;662;-71
2022/11/14 01:01:25;;;;;;;;;;;;;;;16.42;65.24;101278.28;1265712;23;1888;-70
2022/11/14 01:02:16;;;;;;;;;;;;;;;16.42;65.77;101278.28;1265604;23;636;-70
2022/11/14 01:03:06;;;;;;;;;;;;;;;16.41;65.38;101277.44;1265744;23;645;-70
2022/11/14 01:03:57;;;;;;;;;;;;;;;16.41;65.64;101284.66;1265580;23;587;-70
2022/11/14 01:04:47;;;;;;;;;;;;;;;16.43;65.22;101280.00;1265577;23;622;-70
2022/11/14 01:05:37;;;;;;;;;;;;;;;16.39;65.73;101279.41;1261040;23;666;-70
2022/11/14 01:06:28;;;;;;;;;;;;;;;16.39;65.92;101282.09;1260076;23;626;-70
2022/11/14 01:07:18;;;;;;;;;;;;;;;16.39;65.25;101284.78;1262552;23;606;-70
2022/11/14 01:08:09;;;;;;;;;;;;;;;16.39;65.67;101289.28;1260973;23;606;-70
2022/11/14 01:08:59;;;;;;;;;;;;;;;16.36;65.44;101276.09;1267143;23;676;-71
2022/11/14 01:09:50;;;;;;;;;;;;;;;16.38;65.40;101283.06;1266462;23;658;-70
2022/11/14 01:10:40;;;;;;;;;;;;;;;16.40;65.06;101280.25;1267252;23;626;-70
2022/11/14 01:11:30;;;;;;;;;;;;;;;16.41;65.38;101279.28;1267367;23;669;-71
2022/11/14 01:12:21;;;;;;;;;;;;;;;16.41;65.07;101284.66;1265630;23;643;-70
2022/11/14 01:13:11;;;;;;;;;;;;;;;16.39;65.75;101275.84;1265719;23;1176;-71
2022/11/14 01:14:02;;;;;;;;;;;;;;;16.39;65.43;101274.00;1265521;23;623;-71
2022/11/14 01:14:52;;;;;;;;;;;;;;;16.38;65.37;101279.50;1265535;23;657;-71
2022/11/14 01:15:43;;;;;;;;;;;;;;;16.37;65.25;101277.81;1265808;23;614;-71
2022/11/14 01:16:34;;;;;;;;;;;;;;;16.36;65.05;101274.25;1265279;23;692;-71
2022/11/14 01:17:27;;;;;;;;;;;;;;;16.36;65.14;101271.56;1264559;23;636;-71
2022/11/14 01:18:17;;;;;;;;;;;;;;;16.37;65.48;101275.13;1266464;23;661;-71
2022/11/14 01:19:08;;;;;;;;;;;;;;;16.37;64.93;101277.81;1264973;23;625;-71
2022/11/14 01:19:58;;;;;;;;;;;;;;;16.36;65.31;101270.72;1265714;23;666;-71
2022/11/14 01:20:49;;;;;;;;;;;;;;;16.36;65.28;101268.88;1266254;23;676;-70
2022/11/14 01:21:39;;;;;;;;;;;;;;;16.37;65.31;101273.28;1265612;23;1952;-71
2022/11/14 01:22:30;;;;;;;;;;;;;;;16.33;64.85;101263.75;1265510;23;612;-71
2022/11/14 01:23:20;;;;;;;;;;;;;;;16.35;64.89;101269.00;1265505;23;610;-70
2022/11/14 01:24:10;;;;;;;;;;;;;;;16.35;64.65;101269.00;1265800;23;625;-71
2022/11/14 01:25:01;;;;;;;;;;;;;;;16.33;64.78;101267.28;1265533;23;658;-70
2022/11/14 01:25:51;;;;;;;;;;;;;;;16.33;64.54;101267.28;1265782;23;632;-70
2022/11/14 01:26:42;;;;;;;;;;;;;;;16.31;65.51;101271.94;1265426;23;624;-70
2022/11/14 01:27:32;;;;;;;;;;;;;;;16.31;64.60;101271.09;1265713;23;617;-70
2022/11/14 01:28:23;;;;;;;;;;;;;;;16.30;65.01;101264.03;1267271;23;724;-71
2022/11/14 01:29:13;;;;;;;;;;;;;;;16.30;64.60;101264.84;1265492;23;666;-71
2022/11/14 01:30:03;;;;;;;;;;;;;;;16.31;65.01;101265.72;1265718;23;641;-71
2022/11/14 01:30:54;;;;;;;;;;;;;;;16.31;64.50;101263.88;1265513;23;557;-70
2022/11/14 01:31:44;;;;;;;;;;;;;;;16.30;65.15;101267.53;1265523;23;614;-71
2022/11/14 01:32:35;;;;;;;;;;;;;;;16.32;64.72;101262.91;1265866;23;654;-71
2022/11/14 01:33:25;;;;;;;;;;;;;;;16.33;65.03;101263.75;1264922;23;626;-71
2022/11/14 01:34:15;;;;;;;;;;;;;;;16.32;64.19;101262.91;1265799;23;607;-70
2022/11/14 01:35:06;;;;;;;;;;;;;;;16.32;64.56;101262.03;1265374;23;610;-71
2022/11/14 01:35:56;;;;;;;;;;;;;;;16.30;63.98;101256.78;1265547;23;631;-70
2022/11/14 01:36:47;;;;;;;;;;;;;;;16.30;64.43;101254.09;1265444;23;632;-70
2022/11/14 01:37:37;;;;;;;;;;;;;;;16.29;64.18;101249.72;1265511;23;626;-70
2022/11/14 01:38:27;;;;;;;;;;;;;;;16.29;64.55;101252.41;1267341;23;981;-71
2022/11/14 01:39:18;;;;;;;;;;;;;;;16.30;64.47;101246.03;1265551;23;607;-71
2022/11/14 01:40:08;;;;;;;;;;;;;;;16.30;64.54;101255.97;1265638;23;696;-70
2022/11/14 01:40:59;;;;;;;;;;;;;;;16.29;64.13;101241.66;1267303;23;692;-70
2022/11/14 01:41:49;;;;;;;;;;;;;;;16.27;64.60;101243.63;1265428;23;1893;-70
2022/11/14 01:42:40;;;;;;;;;;;;;;;16.27;64.62;101242.75;1265774;23;701;-70
2022/11/14 01:43:30;;;;;;;;;;;;;;;16.27;64.63;101245.44;1265466;23;627;-70
2022/11/14 01:44:20;;;;;;;;;;;;;;;16.25;64.07;101245.56;1265589;23;641;-70
2022/11/14 01:45:11;;;;;;;;;;;;;;;16.28;64.14;101244.47;1265370;23;705;-69
2022/11/14 01:46:01;;;;;;;;;;;;;;;16.26;64.21;101246.44;1265525;23;645;-70
2022/11/14 01:46:52;;;;;;;;;;;;;;;16.23;65.10;101242.16;1266232;23;681;-70
2022/11/14 01:47:42;;;;;;;;;;;;;;;16.23;64.73;101247.53;1265591;23;658;-70
2022/11/14 01:48:33;;;;;;;;;;;;;;;16.24;64.98;101241.16;1265822;23;622;-70
2022/11/14 01:49:23;;;;;;;;;;;;;;;16.23;64.59;101238.59;1265717;23;650;-70
2022/11/14 01:50:13;;;;;;;;;;;;;;;16.24;64.59;101227.72;1267290;23;642;-70
2022/11/14 01:51:04;;;;;;;;;;;;;;;16.25;64.63;101239.34;1265599;23;623;-70
2022/11/14 01:51:54;;;;;;;;;;;;;;;16.26;64.77;101236.53;1265784;23;658;-70
2022/11/14 01:52:45;;;;;;;;;;;;;;;16.27;64.91;101232.00;1266254;23;649;-70
2022/11/14 01:53:35;;;;;;;;;;;;;;;16.27;64.78;101232.84;1264940;23;551;-70
2022/11/14 01:54:26;;;;;;;;;;;;;;;16.27;64.60;101232.00;1267231;23;624;-70
2022/11/14 01:55:16;;;;;;;;;;;;;;;16.26;64.72;101233.84;1260916;23;677;-70
2022/11/14 01:56:07;;;;;;;;;;;;;;;16.26;64.67;101230.28;1261603;23;669;-70
2022/11/14 01:56:57;;;;;;;;;;;;;;;16.25;64.36;101229.44;1267159;23;757;-70
2022/11/14 01:57:47;;;;;;;;;;;;;;;16.24;65.01;101225.03;1265562;23;662;-70
2022/11/14 01:58:38;;;;;;;;;;;;;;;16.23;65.02;101234.09;1265427;23;608;-70
2022/11/14 01:59:28;;;;;;;;;;;;;;;16.22;65.13;101221.63;1267306;23;590;-70
2022/11/14 02:00:19;;;;;;;;;;;;;;;16.24;64.56;101227.72;1266404;23;700;-70
2022/11/14 02:01:09;;;;;;;;;;;;;;;16.23;64.93;101217.94;1265596;23;610;-70
2022/11/14 02:02:00;;;;;;;;;;;;;;;16.23;64.66;101217.94;1266904;23;1359;-70
2022/11/14 02:02:50;;;;;;;;;;;;;;;16.24;64.44;101214.28;1265444;23;602;-70
2022/11/14 02:03:40;;;;;;;;;;;;;;;16.25;64.38;101223.19;1260828;23;689;-72
2022/11/14 02:04:31;;;;;;;;;;;;;;;16.25;64.72;101217.81;1261613;23;649;-70
2022/11/14 02:05:21;;;;;;;;;;;;;;;16.22;64.36;101210.84;1268125;23;627;-70
2022/11/14 02:06:12;;;;;;;;;;;;;;;16.23;64.49;101209.88;1265699;23;654;-69
2022/11/14 02:07:02;;;;;;;;;;;;;;;16.23;64.64;101207.19;1265594;23;662;-70
2022/11/14 02:07:52;;;;;;;;;;;;;;;16.23;64.93;101206.34;1260732;23;575;-70
2022/11/14 02:08:43;;;;;;;;;;;;;;;16.21;64.38;101200.22;1261770;23;618;-70
2022/11/14 02:09:33;;;;;;;;;;;;;;;16.20;64.24;101210.13;1267278;23;676;-70
2022/11/14 02:10:24;;;;;;;;;;;;;;;16.20;64.67;101199.38;1265511;23;610;-70
2022/11/14 02:11:14;;;;;;;;;;;;;;;16.19;64.20;101204.88;1265517;23;676;-70
2022/11/14 02:12:05;;;;;;;;;;;;;;;16.20;64.64;101204.75;1265776;23;642;-70
2022/11/14 02:12:55;;;;;;;;;;;;;;;16.17;64.65;101199.63;1265380;23;626;-70
2022/11/14 02:13:45;;;;;;;;;;;;;;;16.17;64.58;101194.25;1265672;23;646;-69
2022/11/14 02:14:36;;;;;;;;;;;;;;;16.18;64.87;101198.66;1265392;23;616;-70
2022/11/14 02:15:26;;;;;;;;;;;;;;;16.18;64.56;101195.94;1265476;23;716;-70
2022/11/14 02:16:17;;;;;;;;;;;;;;;16.16;64.49;101187.16;1267172;23;696;-69
2022/11/14 02:17:07;;;;;;;;;;;;;;;16.15;64.85;101188.13;1264955;23;654;-70
2022/11/14 02:17:58;;;;;;;;;;;;;;;16.18;64.44;101195.94;1265698;23;642;-70
2022/11/14 02:18:48;;;;;;;;;;;;;;;16.15;64.78;101185.44;1265484;23;610;-70
2022/11/14 02:19:39;;;;;;;;;;;;;;;16.15;64.57;101189.97;1265604;23;690;-70
2022/11/14 02:20:31;;;;;;;;;;;;;;;16.18;65.07;101184.34;1265403;23;611;-70
2022/11/14 02:21:22;;;;;;;;;;;;;;;16.16;64.20;101187.16;1266249;23;692;-70
2022/11/14 02:22:12;;;;;;;;;;;;;;;16.14;64.61;101183.75;1265465;23;637;-70
2022/11/14 02:23:03;;;;;;;;;;;;;;;16.13;64.53;101178.47;1260819;23;971;-70
2022/11/14 02:23:53;;;;;;;;;;;;;;;16.14;64.53;101183.75;1261567;23;665;-71
2022/11/14 02:24:43;;;;;;;;;;;;;;;16.12;64.32;101180.31;1268055;23;641;-70
2022/11/14 02:25:34;;;;;;;;;;;;;;;16.13;64.79;101183.84;1266301;23;700;-70
2022/11/14 02:26:24;;;;;;;;;;;;;;;16.13;64.88;101179.34;1265546;23;622;-70
2022/11/14 02:27:15;;;;;;;;;;;;;;;16.14;64.92;101185.56;1265637;23;626;-70
2022/11/14 02:28:05;;;;;;;;;;;;;;;16.13;64.69;101186.53;1260491;23;626;-70
2022/11/14 02:28:56;;;;;;;;;;;;;;;16.13;64.73;101187.41;1261506;23;618;-70
2022/11/14 02:29:46;;;;;;;;;;;;;;;16.13;64.55;101187.41;1266268;23;633;-70
2022/11/14 02:30:37;;;;;;;;;;;;;;;16.12;64.54;101185.69;1265397;23;762;-70
2022/11/14 02:31:27;;;;;;;;;;;;;;;16.13;65.11;101186.53;1265030;23;638;-70
2022/11/14 02:32:18;;;;;;;;;;;;;;;16.12;64.75;101180.31;1267224;23;673;-70
2022/11/14 02:33:08;;;;;;;;;;;;;;;16.12;65.06;101180.31;1265529;23;603;-70
2022/11/14 02:33:59;;;;;;;;;;;;;;;16.13;64.95;101176.66;1267002;23;688;-70
2022/11/14 02:34:49;;;;;;;;;;;;;;;16.12;64.73;101180.31;1265429;23;638;-70
2022/11/14 02:35:39;;;;;;;;;;;;;;;16.10;64.87;101182.31;1265509;23;630;-70
2022/11/14 02:36:30;;;;;;;;;;;;;;;16.10;64.92;101176.06;1265367;23;597;-70
2022/11/14 02:37:20;;;;;;;;;;;;;;;16.09;64.49;101177.91;1265631;23;625;-70
2022/11/14 02:38:12;;;;;;;;;;;;;;;16.12;65.12;101172.25;1267080;23;612;-70
2022/11/14 02:39:02;;;;;;;;;;;;;;;16.11;64.86;101175.09;1264440;23;614;-70
2022/11/14 02:39:52;;;;;;;;;;;;;;;16.10;64.79;101176.94;1267171;23;665;-70
2022/11/14 02:40:43;;;;;;;;;;;;;;;16.10;64.80;101173.38;1265173;23;610;-70
2022/11/14 02:41:33;;;;;;;;;;;;;;;16.11;64.50;101177.78;1265390;23;1876;-70
2022/11/14 02:42:24;;;;;;;;;;;;;;;16.10;64.87;101174.25;1265631;23;625;-70
2022/11/14 02:43:14;;;;;;;;;;;;;;;16.08;64.74;101178.88;1265485;23;626;-70
2022/11/14 02:44:05;;;;;;;;;;;;;;;16.09;64.47;101174.38;1265638;23;598;-70
2022/11/14 02:44:55;;;;;;;;;;;;;;;16.08;64.38;101176.19;1265415;23;599;-70
2022/11/14 02:45:45;;;;;;;;;;;;;;;16.09;64.64;101179.75;1265049;23;553;-70
2022/11/14 02:46:36;;;;;;;;;;;;;;;16.09;64.72;101179.75;1265196;23;658;-69
2022/11/14 02:47:26;;;;;;;;;;;;;;;16.07;64.30;101174.50;1265450;23;607;-69
2022/11/14 02:48:17;;;;;;;;;;;;;;;16.09;64.20;101175.22;1265683;23;626;-69
2022/11/14 02:49:07;;;;;;;;;;;;;;;16.08;64.61;101176.19;1265366;23;649;-69
2022/11/14 02:49:58;;;;;;;;;;;;;;;16.09;64.17;101177.06;1265622;23;1027;-70
2022/11/14 02:50:48;;;;;;;;;;;;;;;16.07;64.36;101171.81;1265429;23;697;-70
2022/11/14 02:51:40;;;;;;;;;;;;;;;16.08;64.50;101168.13;1265501;23;684;-70
2022/11/14 02:52:30;;;;;;;;;;;;;;;16.08;64.30;101178.88;1264390;23;603;-70
2022/11/14 02:53:21;;;;;;;;;;;;;;;16.09;64.37;101172.53;1265621;23;642;-70
2022/11/14 02:54:11;;;;;;;;;;;;;;;16.08;64.44;101173.50;1265399;23;569;-70
2022/11/14 02:55:02;;;;;;;;;;;;;;;16.08;64.42;101173.50;1265468;23;658;-70
2022/11/14 02:55:53;;;;;;;;;;;;;;;16.09;64.66;101169.00;1265326;23;630;-70
2022/11/14 02:56:43;;;;;;;;;;;;;;;16.09;64.06;101166.31;1266117;23;644;-70
2022/11/14 02:57:33;;;;;;;;;;;;;;;16.08;64.53;101169.97;1265570;23;783;-70
2022/11/14 02:58:24;;;;;;;;;;;;;;;16.08;64.30;101168.13;1267116;23;607;-70
2022/11/14 02:59:14;;;;;;;;;;;;;;;16.07;64.53;101160.19;1267113;23;649;-70
2022/11/14 03:00:05;;;;;;;;;;;;;;;16.07;64.40;101163.75;1265554;23;603;-70
2022/11/14 03:00:55;;;;;;;;;;;;;;;16.05;64.29;101165.69;1265316;23;1008;-70
2022/11/14 03:01:45;;;;;;;;;;;;;;;16.03;64.40;101159.59;1265220;23;1881;-70
2022/11/14 03:02:36;;;;;;;;;;;;;;;16.06;64.06;101158.47;1265324;23;638;-70
2022/11/14 03:03:26;;;;;;;;;;;;;;;16.05;64.49;101157.63;1265504;23;650;-70
2022/11/14 03:04:17;;;;;;;;;;;;;;;16.06;63.84;101159.34;1265715;23;618;-70
2022/11/14 03:05:07;;;;;;;;;;;;;;;16.06;64.15;101158.47;1265362;23;638;-70
2022/11/14 03:05:58;;;;;;;;;;;;;;;16.06;64.04;101158.47;1265565;23;575;-70
2022/11/14 03:06:48;;;;;;;;;;;;;;;16.07;63.94;101158.34;1267147;23;641;-70
2022/11/14 03:07:38;;;;;;;;;;;;;;;16.04;63.63;101155.91;1265387;23;651;-70
2022/11/14 03:08:29;;;;;;;;;;;;;;;16.05;64.22;101157.63;1265735;23;627;-70
2022/11/14 03:09:19;;;;;;;;;;;;;;;16.02;63.85;101151.66;1265248;23;642;-70
2022/11/14 03:10:10;;;;;;;;;;;;;;;16.00;63.96;101153.59;1265598;23;622;-70
2022/11/14 03:11:00;;;;;;;;;;;;;;;15.98;64.13;101151.03;1265307;23;610;-70
2022/11/14 03:11:50;;;;;;;;;;;;;;;15.99;63.99;101150.06;1265525;23;646;-70
2022/11/14 03:12:41;;;;;;;;;;;;;;;16.02;63.97;101146.28;1265313;23;590;-70
2022/11/14 03:13:31;;;;;;;;;;;;;;;16.03;63.74;101145.28;1267098;23;610;-70
2022/11/14 03:14:22;;;;;;;;;;;;;;;16.02;63.77;101147.13;1265611;23;638;-70
2022/11/14 03:15:12;;;;;;;;;;;;;;;16.04;63.83;101145.16;1264813;23;644;-70
2022/11/14 03:16:03;;;;;;;;;;;;;;;16.03;63.38;101139.91;1265595;23;689;-71
2022/11/14 03:16:53;;;;;;;;;;;;;;;16.04;63.56;101141.63;1266256;23;969;-70
2022/11/14 03:17:44;;;;;;;;;;;;;;;16.02;63.77;101139.06;1265665;23;662;-70
2022/11/14 03:18:34;;;;;;;;;;;;;;;16.02;63.77;101144.44;1267090;23;598;-70
2022/11/14 03:19:25;;;;;;;;;;;;;;;16.00;63.63;101135.63;1265595;23;728;-70
2022/11/14 03:20:15;;;;;;;;;;;;;;;16.01;63.43;101133.81;1265396;23;677;-70
2022/11/14 03:21:05;;;;;;;;;;;;;;;15.98;63.75;101132.22;1265526;23;650;-70
2022/11/14 03:21:56;;;;;;;;;;;;;;;16.00;63.48;101129.41;1265147;23;586;-70
2022/11/14 03:22:46;;;;;;;;;;;;;;;16.01;63.75;101133.81;1265456;23;598;-70
2022/11/14 03:23:37;;;;;;;;;;;;;;;15.99;63.54;101133.94;1265677;23;626;-70
2022/11/14 03:24:27;;;;;;;;;;;;;;;15.99;63.30;101131.25;1265438;23;703;-70
2022/11/14 03:25:18;;;;;;;;;;;;;;;16.00;63.62;101126.72;1265555;23;615;-70
2022/11/14 03:26:08;;;;;;;;;;;;;;;16.01;63.04;101129.28;1265238;23;634;-70
2022/11/14 03:26:58;;;;;;;;;;;;;;;16.00;62.92;101127.56;1265485;23;575;-70
2022/11/14 03:27:49;;;;;;;;;;;;;;;15.97;63.31;101133.19;1265638;23;618;-69
2022/11/14 03:28:39;;;;;;;;;;;;;;;15.95;63.56;101130.63;1265450;23;670;-70
2022/11/14 03:29:30;;;;;;;;;;;;;;;15.95;63.33;101127.09;1265080;23;631;-70
2022/11/14 03:30:20;;;;;;;;;;;;;;;15.96;63.49;101123.44;1267080;23;653;-71
2022/11/14 03:31:10;;;;;;;;;;;;;;;15.95;63.44;101129.78;1265457;23;614;-70
2022/11/14 03:32:01;;;;;;;;;;;;;;;15.93;63.32;101127.25;1265176;23;562;-70
2022/11/14 03:32:51;;;;;;;;;;;;;;;15.94;63.47;101122.72;1267055;23;622;-70
2022/11/14 03:33:42;;;;;;;;;;;;;;;15.93;63.17;101126.41;1265594;23;609;-70
2022/11/14 03:34:32;;;;;;;;;;;;;;;15.95;63.34;101127.09;1265398;23;626;-70
2022/11/14 03:35:23;;;;;;;;;;;;;;;15.94;63.13;101128.09;1265632;23;625;-70
2022/11/14 03:36:14;;;;;;;;;;;;;;;15.92;63.43;101125.53;1265291;23;614;-71
2022/11/14 03:37:04;;;;;;;;;;;;;;;15.91;63.50;101125.66;1264429;23;611;-70
2022/11/14 03:37:54;;;;;;;;;;;;;;;15.91;63.39;101122.97;1265361;23;693;-70
2022/11/14 03:38:45;;;;;;;;;;;;;;;15.92;63.42;101130.06;1265287;23;733;-70
2022/11/14 03:39:35;;;;;;;;;;;;;;;15.94;63.76;101133.47;1265462;23;661;-70
2022/11/14 03:40:26;;;;;;;;;;;;;;;15.91;63.32;101125.66;1261117;23;594;-70
2022/11/14 03:41:16;;;;;;;;;;;;;;;15.92;63.38;101125.53;1262818;23;610;-71
2022/11/14 03:42:08;;;;;;;;;;;;;;;15.94;63.42;101125.41;1262643;23;634;-70
2022/11/14 03:42:58;;;;;;;;;;;;;;;15.93;63.86;101118.34;1261076;23;642;-70
2022/11/14 03:43:49;;;;;;;;;;;;;;;15.91;63.31;101125.66;1266942;23;613;-70
2022/11/14 03:44:39;;;;;;;;;;;;;;;15.92;63.39;101114.78;1265837;23;594;-70
2022/11/14 03:45:30;;;;;;;;;;;;;;;15.91;63.33;101113.09;1265954;23;622;-71
2022/11/14 03:46:20;;;;;;;;;;;;;;;15.90;63.58;101111.38;1265782;23;611;-70
2022/11/14 03:47:10;;;;;;;;;;;;;;;15.88;63.40;101113.34;1267411;23;664;-70
2022/11/14 03:48:01;;;;;;;;;;;;;;;15.87;63.47;101121.53;1267380;23;696;-70
2022/11/14 03:48:51;;;;;;;;;;;;;;;15.84;63.27;101111.88;1265718;23;671;-70
2022/11/14 03:49:43;;;;;;;;;;;;;;;15.86;63.32;101103.69;1261114;23;633;-70
2022/11/14 03:50:34;;;;;;;;;;;;;;;15.86;63.19;101112.59;1261682;23;649;-71
2022/11/14 03:51:24;;;;;;;;;;;;;;;15.89;63.19;101111.50;1267508;23;700;-70
2022/11/14 03:52:15;;;;;;;;;;;;;;;15.90;63.37;101110.53;1267476;23;618;-71
2022/11/14 03:53:05;;;;;;;;;;;;;;;15.89;63.41;101108.81;1267376;23;632;-70
2022/11/14 03:53:56;;;;;;;;;;;;;;;15.89;62.87;101100.75;1267574;23;591;-70
2022/11/14 03:54:46;;;;;;;;;;;;;;;15.89;63.10;101106.97;1265735;23;619;-71
2022/11/14 03:55:37;;;;;;;;;;;;;;;15.86;63.24;101107.22;1265772;23;632;-71
2022/11/14 03:56:28;;;;;;;;;;;;;;;15.87;63.22;101108.09;1265294;23;628;-71
2022/11/14 03:57:18;;;;;;;;;;;;;;;15.85;63.15;101108.22;1265502;23;603;-70
2022/11/14 03:58:09;;;;;;;;;;;;;;;15.88;63.05;101110.66;1266709;23;700;-70
2022/11/14 03:58:59;;;;;;;;;;;;;;;15.88;63.17;101107.97;1265558;23;674;-71
2022/11/14 03:59:49;;;;;;;;;;;;;;;15.88;63.17;101101.72;1265728;23;702;-70
2022/11/14 04:00:40;;;;;;;;;;;;;;;15.88;63.37;101104.41;1265925;23;685;-70
2022/11/14 04:01:30;;;;;;;;;;;;;;;15.86;63.49;101103.69;1265568;23;1881;-70
2022/11/14 04:02:21;;;;;;;;;;;;;;;15.87;63.19;101100.03;1265902;23;646;-70
2022/11/14 04:03:11;;;;;;;;;;;;;;;15.87;63.23;101098.19;1265785;23;635;-70
2022/11/14 04:04:01;;;;;;;;;;;;;;;15.85;63.20;101100.16;1265827;23;654;-70
2022/11/14 04:04:52;;;;;;;;;;;;;;;15.86;63.57;101099.16;1260945;23;654;-70
2022/11/14 04:05:42;;;;;;;;;;;;;;;15.88;63.23;101097.22;1261893;23;633;-69
2022/11/14 04:06:33;;;;;;;;;;;;;;;15.88;63.17;101096.34;1260991;23;637;-69
2022/11/14 04:07:23;;;;;;;;;;;;;;;15.86;63.37;101098.31;1255164;23;631;-70
2022/11/14 04:08:14;;;;;;;;;;;;;;;15.85;63.38;101096.59;1260833;23;674;-70
2022/11/14 04:09:05;;;;;;;;;;;;;;;15.82;63.39;101094.16;1265809;23;614;-69
2022/11/14 04:09:55;;;;;;;;;;;;;;;15.84;63.90;101089.53;1266461;23;665;-69
2022/11/14 04:10:46;;;;;;;;;;;;;;;15.84;63.37;101089.53;1265882;23;626;-69
2022/11/14 04:11:36;;;;;;;;;;;;;;;15.83;63.82;101087.81;1267402;23;653;-69
2022/11/14 04:12:27;;;;;;;;;;;;;;;15.84;63.47;101081.47;1265817;23;670;-69
2022/11/14 04:13:17;;;;;;;;;;;;;;;15.83;63.42;101087.81;1265522;23;694;-69
2022/11/14 04:14:07;;;;;;;;;;;;;;;15.83;63.46;101088.66;1265597;23;620;-69
2022/11/14 04:14:58;;;;;;;;;;;;;;;15.82;63.67;101084.28;1265804;23;631;-69
2022/11/14 04:15:48;;;;;;;;;;;;;;;15.82;63.84;101083.41;1265509;23;638;-69
2022/11/14 04:16:39;;;;;;;;;;;;;;;15.79;63.85;101079.16;1265847;23;661;-69
2022/11/14 04:17:29;;;;;;;;;;;;;;;15.80;63.84;101080.00;1265569;23;669;-69
2022/11/14 04:18:20;;;;;;;;;;;;;;;15.80;63.85;101088.06;1267391;23;712;-70
2022/11/14 04:19:10;;;;;;;;;;;;;;;15.80;63.77;101080.00;1266453;23;688;-69
2022/11/14 04:20:00;;;;;;;;;;;;;;;15.80;63.74;101082.69;1265673;23;638;-70
2022/11/14 04:20:51;;;;;;;;;;;;;;;15.79;64.40;101078.28;1265609;23;662;-69
2022/11/14 04:21:41;;;;;;;;;;;;;;;15.79;63.60;101076.47;1265601;23;1901;-70
2022/11/14 04:22:32;;;;;;;;;;;;;;;15.82;63.89;101086.09;1265746;23;610;-70
2022/11/14 04:23:22;;;;;;;;;;;;;;;15.80;64.13;101078.16;1265654;23;618;-70
2022/11/14 04:24:13;;;;;;;;;;;;;;;15.80;63.94;101083.53;1265953;23;650;-70
2022/11/14 04:25:03;;;;;;;;;;;;;;;15.80;63.83;101077.31;1267418;23;592;-69
2022/11/14 04:25:54;;;;;;;;;;;;;;;15.78;63.98;101080.13;1265806;23;708;-69